Sheridan, Wyoming
Current Conditions -  °F | °C
As of 7:53 AM on Thursday 23 Oct 2014 (Local Time) from KSHR Reporting Station
Clear Clear  
Wind Chill: 30°   Ceiling: Unl
Heat Index: 36°   Visibility: 10mi
Dew Point: 26°   Wind: 7mph
Humidity: 67%   Direction: 220°SW
Pressure: 29.93"   Gusts: NA
Location:  44.8°N, 106.95°W
Report Text: KSHR 231353Z AUTO 22006KT 10SM CLR 02/M03 A2993 RMK AO2 SLP154 T00221033 TSNO
Loading
Personal Weather Stations






























Interactive Weather Map
Tropical Storm Tracking
New forecast layout! Learn more

10-Day Weather Forecast

Advertisements
Track Severe Weather on mobile